sensor_id;sensor_type;location;lat;lon;timestamp;temperature;humidity
68556;HTU21D;55544;51.032;5.866;2023-04-07T00:00:51;10.60;88.54
68556;HTU21D;55544;51.032;5.866;2023-04-07T00:03:17;10.59;88.60
68556;HTU21D;55544;51.032;5.866;2023-04-07T00:05:43;10.65;88.54
68556;HTU21D;55544;51.032;5.866;2023-04-07T00:08:09;10.64;88.47
68556;HTU21D;55544;51.032;5.866;2023-04-07T00:10:34;10.64;88.54
68556;HTU21D;55544;51.032;5.866;2023-04-07T00:13:00;10.64;88.45
68556;HTU21D;55544;51.032;5.866;2023-04-07T00:15:26;10.65;88.44
68556;HTU21D;55544;51.032;5.866;2023-04-07T00:17:52;10.69;88.22
68556;HTU21D;55544;51.032;5.866;2023-04-07T00:20:18;10.70;87.99
68556;HTU21D;55544;51.032;5.866;2023-04-07T00:22:43;10.73;88.02
68556;HTU21D;55544;51.032;5.866;2023-04-07T00:25:09;10.75;87.94
68556;HTU21D;55544;51.032;5.866;2023-04-07T00:27:35;10.77;87.73
68556;HTU21D;55544;51.032;5.866;2023-04-07T00:30:01;10.80;87.51
68556;HTU21D;55544;51.032;5.866;2023-04-07T00:32:27;10.78;87.53
68556;HTU21D;55544;51.032;5.866;2023-04-07T00:34:53;10.74;87.43
68556;HTU21D;55544;51.032;5.866;2023-04-07T00:37:19;10.71;87.48
68556;HTU21D;55544;51.032;5.866;2023-04-07T00:39:45;10.69;87.45
68556;HTU21D;55544;51.032;5.866;2023-04-07T00:42:11;10.70;87.45
68556;HTU21D;55544;51.032;5.866;2023-04-07T00:44:37;10.65;87.67
68556;HTU21D;55544;51.032;5.866;2023-04-07T00:47:03;10.60;87.75
68556;HTU21D;55544;51.032;5.866;2023-04-07T00:49:29;10.57;87.84
68556;HTU21D;55544;51.032;5.866;2023-04-07T00:51:57;10.52;88.06
68556;HTU21D;55544;51.032;5.866;2023-04-07T00:54:23;10.50;88.19
68556;HTU21D;55544;51.032;5.866;2023-04-07T00:56:50;10.50;88.35
68556;HTU21D;55544;51.032;5.866;2023-04-07T00:59:17;10.49;88.41
68556;HTU21D;55544;51.032;5.866;2023-04-07T01:02:01;10.50;88.29
68556;HTU21D;55544;51.032;5.866;2023-04-07T01:04:42;10.48;88.35
68556;HTU21D;55544;51.032;5.866;2023-04-07T01:07:15;10.45;88.19
68556;HTU21D;55544;51.032;5.866;2023-04-07T01:09:57;10.45;88.20
68556;HTU21D;55544;51.032;5.866;2023-04-07T01:15:21;10.41;88.35
68556;HTU21D;55544;51.032;5.866;2023-04-07T01:17:59;10.36;88.47
68556;HTU21D;55544;51.032;5.866;2023-04-07T01:20:29;10.35;88.57
68556;HTU21D;55544;51.032;5.866;2023-04-07T01:23:04;10.33;88.39
68556;HTU21D;55544;51.032;5.866;2023-04-07T01:31:04;10.30;88.37
68556;HTU21D;55544;51.032;5.866;2023-04-07T01:33:33;10.31;88.13
68556;HTU21D;55544;51.032;5.866;2023-04-07T01:36:00;10.28;88.04
68556;HTU21D;55544;51.032;5.866;2023-04-07T01:38:28;10.27;87.87
68556;HTU21D;55544;51.032;5.866;2023-04-07T01:40:56;10.25;87.90
68556;HTU21D;55544;51.032;5.866;2023-04-07T01:43:24;10.26;87.74
68556;HTU21D;55544;51.032;5.866;2023-04-07T01:45:53;10.24;87.67
68556;HTU21D;55544;51.032;5.866;2023-04-07T01:48:20;10.24;87.55
68556;HTU21D;55544;51.032;5.866;2023-04-07T01:50:46;10.25;87.55
68556;HTU21D;55544;51.032;5.866;2023-04-07T01:53:15;10.28;87.35
68556;HTU21D;55544;51.032;5.866;2023-04-07T01:55:42;10.28;87.40
68556;HTU21D;55544;51.032;5.866;2023-04-07T01:58:08;10.28;87.41
68556;HTU21D;55544;51.032;5.866;2023-04-07T02:00:37;10.33;87.41
68556;HTU21D;55544;51.032;5.866;2023-04-07T02:03:19;10.34;87.29
68556;HTU21D;55544;51.032;5.866;2023-04-07T02:05:48;10.34;87.24
68556;HTU21D;55544;51.032;5.866;2023-04-07T02:08:17;10.35;87.32
68556;HTU21D;55544;51.032;5.866;2023-04-07T02:10:47;10.38;87.17
68556;HTU21D;55544;51.032;5.866;2023-04-07T02:13:19;10.36;87.08
68556;HTU21D;55544;51.032;5.866;2023-04-07T02:15:49;10.35;86.96
68556;HTU21D;55544;51.032;5.866;2023-04-07T02:18:19;10.25;87.39
68556;HTU21D;55544;51.032;5.866;2023-04-07T02:20:47;10.25;87.68
68556;HTU21D;55544;51.032;5.866;2023-04-07T02:23:13;10.24;87.90
68556;HTU21D;55544;51.032;5.866;2023-04-07T02:25:39;10.23;88.14
68556;HTU21D;55544;51.032;5.866;2023-04-07T02:28:04;10.23;88.33
68556;HTU21D;55544;51.032;5.866;2023-04-07T02:30:34;10.26;88.44
68556;HTU21D;55544;51.032;5.866;2023-04-07T02:33:00;10.29;88.40
68556;HTU21D;55544;51.032;5.866;2023-04-07T02:35:26;10.31;88.38
68556;HTU21D;55544;51.032;5.866;2023-04-07T02:37:52;10.36;88.40
68556;HTU21D;55544;51.032;5.866;2023-04-07T02:40:18;10.36;88.32
68556;HTU21D;55544;51.032;5.866;2023-04-07T02:42:45;10.39;88.34
68556;HTU21D;55544;51.032;5.866;2023-04-07T02:45:11;10.45;88.22
68556;HTU21D;55544;51.032;5.866;2023-04-07T02:47:37;10.49;87.93
68556;HTU21D;55544;51.032;5.866;2023-04-07T02:50:03;10.50;87.73
68556;HTU21D;55544;51.032;5.866;2023-04-07T02:52:33;10.54;87.93
68556;HTU21D;55544;51.032;5.866;2023-04-07T02:55:00;10.58;87.92
68556;HTU21D;55544;51.032;5.866;2023-04-07T02:57:27;10.63;87.76
68556;HTU21D;55544;51.032;5.866;2023-04-07T02:59:56;10.67;87.46
68556;HTU21D;55544;51.032;5.866;2023-04-07T03:02:26;10.69;87.51
68556;HTU21D;55544;51.032;5.866;2023-04-07T03:04:52;10.69;87.46
68556;HTU21D;55544;51.032;5.866;2023-04-07T03:07:20;10.70;87.28
68556;HTU21D;55544;51.032;5.866;2023-04-07T03:09:48;10.70;86.99
68556;HTU21D;55544;51.032;5.866;2023-04-07T03:12:16;10.69;86.99
68556;HTU21D;55544;51.032;5.866;2023-04-07T03:14:42;10.69;86.83
68556;HTU21D;55544;51.032;5.866;2023-04-07T03:17:07;10.69;86.63
68556;HTU21D;55544;51.032;5.866;2023-04-07T03:19:33;10.69;86.69
68556;HTU21D;55544;51.032;5.866;2023-04-07T03:21:59;10.62;86.64
68556;HTU21D;55544;51.032;5.866;2023-04-07T03:24:25;10.58;86.86
68556;HTU21D;55544;51.032;5.866;2023-04-07T03:26:51;10.55;87.03
68556;HTU21D;55544;51.032;5.866;2023-04-07T03:29:27;10.53;87.12
68556;HTU21D;55544;51.032;5.866;2023-04-07T03:31:53;10.52;87.28
68556;HTU21D;55544;51.032;5.866;2023-04-07T03:34:22;10.53;87.16
68556;HTU21D;55544;51.032;5.866;2023-04-07T03:36:47;10.53;86.88
68556;HTU21D;55544;51.032;5.866;2023-04-07T03:39:14;10.50;86.98
68556;HTU21D;55544;51.032;5.866;2023-04-07T03:41:40;10.49;87.01
68556;HTU21D;55544;51.032;5.866;2023-04-07T03:44:07;10.49;87.07
68556;HTU21D;55544;51.032;5.866;2023-04-07T03:46:35;10.51;87.14
68556;HTU21D;55544;51.032;5.866;2023-04-07T03:49:01;10.52;87.09
68556;HTU21D;55544;51.032;5.866;2023-04-07T03:51:29;10.55;87.03
68556;HTU21D;55544;51.032;5.866;2023-04-07T03:53:57;10.55;86.57
68556;HTU21D;55544;51.032;5.866;2023-04-07T03:56:31;10.52;86.80
68556;HTU21D;55544;51.032;5.866;2023-04-07T03:58:57;10.51;86.86
68556;HTU21D;55544;51.032;5.866;2023-04-07T04:01:33;10.50;86.41
68556;HTU21D;55544;51.032;5.866;2023-04-07T04:04:06;10.51;85.84
68556;HTU21D;55544;51.032;5.866;2023-04-07T04:06:33;10.40;85.58
68556;HTU21D;55544;51.032;5.866;2023-04-07T04:09:07;10.35;85.58
68556;HTU21D;55544;51.032;5.866;2023-04-07T04:11:37;10.29;85.56
68556;HTU21D;55544;51.032;5.866;2023-04-07T04:14:04;10.29;85.66
68556;HTU21D;55544;51.032;5.866;2023-04-07T04:16:31;10.27;85.48
68556;HTU21D;55544;51.032;5.866;2023-04-07T04:19:01;10.27;85.41
68556;HTU21D;55544;51.032;5.866;2023-04-07T04:21:29;10.28;85.03
68556;HTU21D;55544;51.032;5.866;2023-04-07T04:23:55;10.26;84.77
68556;HTU21D;55544;51.032;5.866;2023-04-07T04:26:21;10.28;84.61
68556;HTU21D;55544;51.032;5.866;2023-04-07T04:28:51;10.30;84.33
68556;HTU21D;55544;51.032;5.866;2023-04-07T04:31:19;10.30;84.02
68556;HTU21D;55544;51.032;5.866;2023-04-07T04:33:46;10.30;83.82
68556;HTU21D;55544;51.032;5.866;2023-04-07T04:36:12;10.34;83.58
68556;HTU21D;55544;51.032;5.866;2023-04-07T04:38:38;10.31;83.13
68556;HTU21D;55544;51.032;5.866;2023-04-07T04:41:14;10.28;82.91
68556;HTU21D;55544;51.032;5.866;2023-04-07T04:43:40;10.28;82.84
68556;HTU21D;55544;51.032;5.866;2023-04-07T04:46:06;10.29;82.71
68556;HTU21D;55544;51.032;5.866;2023-04-07T04:48:37;10.30;82.53
68556;HTU21D;55544;51.032;5.866;2023-04-07T04:51:04;10.29;82.31
68556;HTU21D;55544;51.032;5.866;2023-04-07T04:53:31;10.27;82.27
68556;HTU21D;55544;51.032;5.866;2023-04-07T04:55:59;10.25;82.43
68556;HTU21D;55544;51.032;5.866;2023-04-07T04:58:35;10.23;82.49
68556;HTU21D;55544;51.032;5.866;2023-04-07T05:01:01;10.24;82.46
68556;HTU21D;55544;51.032;5.866;2023-04-07T05:03:34;10.21;82.32
68556;HTU21D;55544;51.032;5.866;2023-04-07T05:06:04;10.19;82.52
68556;HTU21D;55544;51.032;5.866;2023-04-07T05:08:31;10.19;82.61
68556;HTU21D;55544;51.032;5.866;2023-04-07T05:10:58;10.20;82.63
68556;HTU21D;55544;51.032;5.866;2023-04-07T05:13:28;10.19;82.75
68556;HTU21D;55544;51.032;5.866;2023-04-07T05:15:58;10.23;82.71
68556;HTU21D;55544;51.032;5.866;2023-04-07T05:18:24;10.25;82.58
68556;HTU21D;55544;51.032;5.866;2023-04-07T05:20:50;10.28;82.41
68556;HTU21D;55544;51.032;5.866;2023-04-07T05:23:16;10.30;82.33
68556;HTU21D;55544;51.032;5.866;2023-04-07T05:25:44;10.34;82.24
68556;HTU21D;55544;51.032;5.866;2023-04-07T05:28:11;10.34;82.10
68556;HTU21D;55544;51.032;5.866;2023-04-07T05:30:37;10.37;82.20
68556;HTU21D;55544;51.032;5.866;2023-04-07T05:33:03;10.41;82.10
68556;HTU21D;55544;51.032;5.866;2023-04-07T05:35:42;10.44;81.77
68556;HTU21D;55544;51.032;5.866;2023-04-07T05:38:08;10.48;81.46
68556;HTU21D;55544;51.032;5.866;2023-04-07T05:40:35;10.46;81.48
68556;HTU21D;55544;51.032;5.866;2023-04-07T05:43:02;10.46;81.42
68556;HTU21D;55544;51.032;5.866;2023-04-07T05:45:30;10.44;81.43
68556;HTU21D;55544;51.032;5.866;2023-04-07T05:47:55;10.41;81.54
68556;HTU21D;55544;51.032;5.866;2023-04-07T05:50:28;10.41;81.60
68556;HTU21D;55544;51.032;5.866;2023-04-07T05:52:56;10.43;81.48
68556;HTU21D;55544;51.032;5.866;2023-04-07T05:55:24;10.43;81.45
68556;HTU21D;55544;51.032;5.866;2023-04-07T05:57:51;10.42;81.52
68556;HTU21D;55544;51.032;5.866;2023-04-07T06:00:20;10.45;81.57
68556;HTU21D;55544;51.032;5.866;2023-04-07T06:02:55;10.46;81.28
68556;HTU21D;55544;51.032;5.866;2023-04-07T06:05:21;10.42;81.39
68556;HTU21D;55544;51.032;5.866;2023-04-07T06:07:51;10.40;81.27
68556;HTU21D;55544;51.032;5.866;2023-04-07T06:10:16;10.37;81.34
68556;HTU21D;55544;51.032;5.866;2023-04-07T06:12:44;10.35;81.84
68556;HTU21D;55544;51.032;5.866;2023-04-07T06:15:09;10.37;81.74
68556;HTU21D;55544;51.032;5.866;2023-04-07T06:17:36;10.38;82.10
68556;HTU21D;55544;51.032;5.866;2023-04-07T06:20:03;10.39;81.81
68556;HTU21D;55544;51.032;5.866;2023-04-07T06:22:31;10.39;81.58
68556;HTU21D;55544;51.032;5.866;2023-04-07T06:24:58;10.35;81.65
68556;HTU21D;55544;51.032;5.866;2023-04-07T06:27:24;10.35;81.84
68556;HTU21D;55544;51.032;5.866;2023-04-07T06:29:50;10.36;82.04
68556;HTU21D;55544;51.032;5.866;2023-04-07T06:32:16;10.37;82.12
68556;HTU21D;55544;51.032;5.866;2023-04-07T06:34:41;10.31;81.98
68556;HTU21D;55544;51.032;5.866;2023-04-07T06:37:08;10.27;81.99
68556;HTU21D;55544;51.032;5.866;2023-04-07T06:39:33;10.23;82.40
68556;HTU21D;55544;51.032;5.866;2023-04-07T06:41:59;10.21;82.39
68556;HTU21D;55544;51.032;5.866;2023-04-07T06:44:26;10.15;82.64
68556;HTU21D;55544;51.032;5.866;2023-04-07T06:46:51;10.10;82.77
68556;HTU21D;55544;51.032;5.866;2023-04-07T06:49:19;10.04;83.36
68556;HTU21D;55544;51.032;5.866;2023-04-07T06:51:46;10.04;83.53
68556;HTU21D;55544;51.032;5.866;2023-04-07T06:54:11;10.05;83.81
68556;HTU21D;55544;51.032;5.866;2023-04-07T06:56:42;10.08;83.45
68556;HTU21D;55544;51.032;5.866;2023-04-07T06:59:08;10.07;83.72
68556;HTU21D;55544;51.032;5.866;2023-04-07T07:01:34;10.11;84.04
68556;HTU21D;55544;51.032;5.866;2023-04-07T07:03:59;10.16;84.07
68556;HTU21D;55544;51.032;5.866;2023-04-07T07:06:26;10.19;83.50
68556;HTU21D;55544;51.032;5.866;2023-04-07T07:08:52;10.19;83.45
68556;HTU21D;55544;51.032;5.866;2023-04-07T07:11:18;10.16;83.35
68556;HTU21D;55544;51.032;5.866;2023-04-07T07:13:44;10.11;83.30
68556;HTU21D;55544;51.032;5.866;2023-04-07T07:16:10;10.15;83.00
68556;HTU21D;55544;51.032;5.866;2023-04-07T07:18:37;10.06;83.15
68556;HTU21D;55544;51.032;5.866;2023-04-07T07:21:03;10.03;83.36
68556;HTU21D;55544;51.032;5.866;2023-04-07T07:23:29;9.90;83.68
68556;HTU21D;55544;51.032;5.866;2023-04-07T07:25:55;9.84;84.13
68556;HTU21D;55544;51.032;5.866;2023-04-07T07:28:21;9.90;84.42
68556;HTU21D;55544;51.032;5.866;2023-04-07T07:30:48;9.93;84.03
68556;HTU21D;55544;51.032;5.866;2023-04-07T07:33:13;9.94;84.29
68556;HTU21D;55544;51.032;5.866;2023-04-07T07:35:40;9.94;84.55
68556;HTU21D;55544;51.032;5.866;2023-04-07T07:38:06;10.00;84.46
68556;HTU21D;55544;51.032;5.866;2023-04-07T07:40:32;9.94;84.35
68556;HTU21D;55544;51.032;5.866;2023-04-07T07:42:59;9.96;84.74
68556;HTU21D;55544;51.032;5.866;2023-04-07T07:45:25;10.04;85.03
68556;HTU21D;55544;51.032;5.866;2023-04-07T07:47:51;10.11;84.49
68556;HTU21D;55544;51.032;5.866;2023-04-07T07:50:17;10.12;84.37
68556;HTU21D;55544;51.032;5.866;2023-04-07T07:52:42;10.11;84.24
68556;HTU21D;55544;51.032;5.866;2023-04-07T07:55:08;10.14;84.03
68556;HTU21D;55544;51.032;5.866;2023-04-07T07:57:34;10.16;83.97
68556;HTU21D;55544;51.032;5.866;2023-04-07T08:00:01;10.20;84.06
68556;HTU21D;55544;51.032;5.866;2023-04-07T08:02:38;10.26;84.13
68556;HTU21D;55544;51.032;5.866;2023-04-07T08:05:04;10.34;83.74
68556;HTU21D;55544;51.032;5.866;2023-04-07T08:07:31;10.30;83.52
68556;HTU21D;55544;51.032;5.866;2023-04-07T08:09:56;10.28;83.65
68556;HTU21D;55544;51.032;5.866;2023-04-07T08:12:22;10.36;83.68
68556;HTU21D;55544;51.032;5.866;2023-04-07T08:14:48;10.35;83.79
68556;HTU21D;55544;51.032;5.866;2023-04-07T08:17:15;10.40;83.70
68556;HTU21D;55544;51.032;5.866;2023-04-07T08:19:40;10.36;83.65
68556;HTU21D;55544;51.032;5.866;2023-04-07T08:22:06;10.46;83.91
68556;HTU21D;55544;51.032;5.866;2023-04-07T08:24:32;10.49;84.00
68556;HTU21D;55544;51.032;5.866;2023-04-07T08:26:57;10.48;83.91
68556;HTU21D;55544;51.032;5.866;2023-04-07T08:29:23;10.48;83.95
68556;HTU21D;55544;51.032;5.866;2023-04-07T08:31:49;10.51;84.37
68556;HTU21D;55544;51.032;5.866;2023-04-07T08:34:14;10.56;84.06
68556;HTU21D;55544;51.032;5.866;2023-04-07T08:36:41;10.65;83.96
68556;HTU21D;55544;51.032;5.866;2023-04-07T08:39:06;10.67;83.47
68556;HTU21D;55544;51.032;5.866;2023-04-07T08:41:36;10.70;83.64
68556;HTU21D;55544;51.032;5.866;2023-04-07T08:44:02;10.73;83.70
68556;HTU21D;55544;51.032;5.866;2023-04-07T08:46:29;10.69;83.52
68556;HTU21D;55544;51.032;5.866;2023-04-07T08:48:56;10.68;83.50
68556;HTU21D;55544;51.032;5.866;2023-04-07T08:51:32;10.72;83.57
68556;HTU21D;55544;51.032;5.866;2023-04-07T08:54:18;10.66;83.13
68556;HTU21D;55544;51.032;5.866;2023-04-07T08:56:46;10.64;83.33
68556;HTU21D;55544;51.032;5.866;2023-04-07T08:59:13;10.65;83.19
68556;HTU21D;55544;51.032;5.866;2023-04-07T09:01:40;10.62;83.39
68556;HTU21D;55544;51.032;5.866;2023-04-07T09:04:08;10.63;83.69
68556;HTU21D;55544;51.032;5.866;2023-04-07T09:06:33;10.67;83.83
68556;HTU21D;55544;51.032;5.866;2023-04-07T09:09:01;10.74;83.37
68556;HTU21D;55544;51.032;5.866;2023-04-07T09:11:27;10.74;83.45
68556;HTU21D;55544;51.032;5.866;2023-04-07T09:13:54;10.78;83.40
68556;HTU21D;55544;51.032;5.866;2023-04-07T09:16:21;10.83;82.94
68556;HTU21D;55544;51.032;5.866;2023-04-07T09:18:48;10.84;82.18
68556;HTU21D;55544;51.032;5.866;2023-04-07T09:21:14;10.78;82.11
68556;HTU21D;55544;51.032;5.866;2023-04-07T09:23:41;10.79;82.42
68556;HTU21D;55544;51.032;5.866;2023-04-07T09:26:25;10.84;82.87
68556;HTU21D;55544;51.032;5.866;2023-04-07T09:31:17;10.97;81.77
68556;HTU21D;55544;51.032;5.866;2023-04-07T09:33:49;10.94;81.61
68556;HTU21D;55544;51.032;5.866;2023-04-07T09:36:14;10.95;82.03
68556;HTU21D;55544;51.032;5.866;2023-04-07T09:38:42;11.01;81.50
68556;HTU21D;55544;51.032;5.866;2023-04-07T09:41:09;11.05;80.85
68556;HTU21D;55544;51.032;5.866;2023-04-07T09:43:37;11.16;79.95
68556;HTU21D;55544;51.032;5.866;2023-04-07T09:46:17;11.18;80.27
68556;HTU21D;55544;51.032;5.866;2023-04-07T09:48:45;11.26;80.41
68556;HTU21D;55544;51.032;5.866;2023-04-07T09:51:14;11.37;79.32
68556;HTU21D;55544;51.032;5.866;2023-04-07T09:53:48;11.41;79.27
68556;HTU21D;55544;51.032;5.866;2023-04-07T09:56:16;11.46;79.40
68556;HTU21D;55544;51.032;5.866;2023-04-07T09:58:45;11.55;79.08
68556;HTU21D;55544;51.032;5.866;2023-04-07T10:01:13;11.64;78.74
68556;HTU21D;55544;51.032;5.866;2023-04-07T10:03:41;11.81;78.29
68556;HTU21D;55544;51.032;5.866;2023-04-07T10:06:07;11.96;77.69
68556;HTU21D;55544;51.032;5.866;2023-04-07T10:08:35;12.14;77.29
68556;HTU21D;55544;51.032;5.866;2023-04-07T10:11:01;12.29;76.25
68556;HTU21D;55544;51.032;5.866;2023-04-07T10:13:32;12.40;74.69
68556;HTU21D;55544;51.032;5.866;2023-04-07T10:15:58;12.48;74.80
68556;HTU21D;55544;51.032;5.866;2023-04-07T10:18:28;12.55;73.54
68556;HTU21D;55544;51.032;5.866;2023-04-07T10:21:00;12.49;72.70
68556;HTU21D;55544;51.032;5.866;2023-04-07T10:26:17;12.49;72.55
68556;HTU21D;55544;51.032;5.866;2023-04-07T10:28:48;12.50;72.26
68556;HTU21D;55544;51.032;5.866;2023-04-07T10:31:16;12.55;72.22
68556;HTU21D;55544;51.032;5.866;2023-04-07T10:33:50;12.59;72.49
68556;HTU21D;55544;51.032;5.866;2023-04-07T10:36:20;12.60;71.64
68556;HTU21D;55544;51.032;5.866;2023-04-07T10:41:34;12.50;71.49
68556;HTU21D;55544;51.032;5.866;2023-04-07T10:44:01;12.47;71.44
68556;HTU21D;55544;51.032;5.866;2023-04-07T10:49:16;12.53;72.48
68556;HTU21D;55544;51.032;5.866;2023-04-07T10:51:43;12.61;71.95
68556;HTU21D;55544;51.032;5.866;2023-04-07T10:59:35;12.58;72.35
68556;HTU21D;55544;51.032;5.866;2023-04-07T11:04:45;12.63;72.57
68556;HTU21D;55544;51.032;5.866;2023-04-07T11:07:12;12.70;72.19
68556;HTU21D;55544;51.032;5.866;2023-04-07T11:09:41;12.77;72.06
68556;HTU21D;55544;51.032;5.866;2023-04-07T11:12:08;12.81;71.75
68556;HTU21D;55544;51.032;5.866;2023-04-07T11:14:46;12.87;71.91
68556;HTU21D;55544;51.032;5.866;2023-04-07T11:17:15;12.84;70.71
68556;HTU21D;55544;51.032;5.866;2023-04-07T11:19:52;12.70;70.80
68556;HTU21D;55544;51.032;5.866;2023-04-07T11:22:18;12.65;71.17
68556;HTU21D;55544;51.032;5.866;2023-04-07T11:24:45;12.72;71.24
68556;HTU21D;55544;51.032;5.866;2023-04-07T11:27:12;12.78;70.81
68556;HTU21D;55544;51.032;5.866;2023-04-07T11:29:38;12.80;70.15
68556;HTU21D;55544;51.032;5.866;2023-04-07T11:32:05;12.85;70.38
68556;HTU21D;55544;51.032;5.866;2023-04-07T11:34:32;12.88;70.19
68556;HTU21D;55544;51.032;5.866;2023-04-07T11:37:24;12.88;69.77
68556;HTU21D;55544;51.032;5.866;2023-04-07T11:39:56;12.72;70.03
68556;HTU21D;55544;51.032;5.866;2023-04-07T11:42:36;12.59;70.63
68556;HTU21D;55544;51.032;5.866;2023-04-07T11:45:02;12.45;70.93
68556;HTU21D;55544;51.032;5.866;2023-04-07T11:50:00;12.40;70.71
68556;HTU21D;55544;51.032;5.866;2023-04-07T11:52:26;12.37;71.02
68556;HTU21D;55544;51.032;5.866;2023-04-07T11:54:52;12.41;71.29
68556;HTU21D;55544;51.032;5.866;2023-04-07T11:57:25;12.45;71.46
68556;HTU21D;55544;51.032;5.866;2023-04-07T12:00:08;12.55;71.48
68556;HTU21D;55544;51.032;5.866;2023-04-07T12:02:35;12.65;71.17
68556;HTU21D;55544;51.032;5.866;2023-04-07T12:05:01;12.76;70.58
68556;HTU21D;55544;51.032;5.866;2023-04-07T12:07:27;12.85;70.20
68556;HTU21D;55544;51.032;5.866;2023-04-07T12:09:53;12.91;69.27
68556;HTU21D;55544;51.032;5.866;2023-04-07T12:12:29;13.00;68.84
68556;HTU21D;55544;51.032;5.866;2023-04-07T12:14:55;13.10;68.62
68556;HTU21D;55544;51.032;5.866;2023-04-07T12:17:23;13.12;68.11
68556;HTU21D;55544;51.032;5.866;2023-04-07T12:19:49;13.15;68.31
68556;HTU21D;55544;51.032;5.866;2023-04-07T12:22:15;13.21;68.01
68556;HTU21D;55544;51.032;5.866;2023-04-07T12:24:41;13.38;67.68
68556;HTU21D;55544;51.032;5.866;2023-04-07T12:27:06;13.50;67.20
68556;HTU21D;55544;51.032;5.866;2023-04-07T12:29:33;13.63;66.58
68556;HTU21D;55544;51.032;5.866;2023-04-07T12:31:59;13.79;66.58
68556;HTU21D;55544;51.032;5.866;2023-04-07T12:34:25;13.99;66.11
68556;HTU21D;55544;51.032;5.866;2023-04-07T12:36:52;14.22;65.71
68556;HTU21D;55544;51.032;5.866;2023-04-07T12:39:18;14.45;64.95
68556;HTU21D;55544;51.032;5.866;2023-04-07T12:41:44;14.67;63.99
68556;HTU21D;55544;51.032;5.866;2023-04-07T12:44:12;14.85;63.29
68556;HTU21D;55544;51.032;5.866;2023-04-07T12:46:37;15.02;62.53
68556;HTU21D;55544;51.032;5.866;2023-04-07T12:49:03;15.16;62.14
68556;HTU21D;55544;51.032;5.866;2023-04-07T12:51:30;15.24;61.41
68556;HTU21D;55544;51.032;5.866;2023-04-07T12:53:58;15.21;61.51
68556;HTU21D;55544;51.032;5.866;2023-04-07T12:56:25;15.18;61.05
68556;HTU21D;55544;51.032;5.866;2023-04-07T12:58:52;15.03;60.60
68556;HTU21D;55544;51.032;5.866;2023-04-07T13:01:18;14.79;60.99
68556;HTU21D;55544;51.032;5.866;2023-04-07T13:03:44;14.63;62.47
68556;HTU21D;55544;51.032;5.866;2023-04-07T13:06:10;14.53;62.83
68556;HTU21D;55544;51.032;5.866;2023-04-07T13:08:36;14.41;62.79
68556;HTU21D;55544;51.032;5.866;2023-04-07T13:11:01;14.29;63.37
68556;HTU21D;55544;51.032;5.866;2023-04-07T13:13:29;14.22;63.64
68556;HTU21D;55544;51.032;5.866;2023-04-07T13:15:55;14.09;64.45
68556;HTU21D;55544;51.032;5.866;2023-04-07T13:18:20;14.05;64.94
68556;HTU21D;55544;51.032;5.866;2023-04-07T13:20:46;13.94;65.21
68556;HTU21D;55544;51.032;5.866;2023-04-07T13:23:12;13.88;65.63
68556;HTU21D;55544;51.032;5.866;2023-04-07T13:25:38;13.76;66.01
68556;HTU21D;55544;51.032;5.866;2023-04-07T13:28:04;13.69;66.07
68556;HTU21D;55544;51.032;5.866;2023-04-07T13:30:30;13.65;66.08
68556;HTU21D;55544;51.032;5.866;2023-04-07T13:32:56;13.62;66.24
68556;HTU21D;55544;51.032;5.866;2023-04-07T13:35:22;13.62;66.27
68556;HTU21D;55544;51.032;5.866;2023-04-07T13:37:49;13.62;66.07
68556;HTU21D;55544;51.032;5.866;2023-04-07T13:40:14;13.61;66.25
68556;HTU21D;55544;51.032;5.866;2023-04-07T13:42:40;13.49;66.35
68556;HTU21D;55544;51.032;5.866;2023-04-07T13:45:06;13.40;66.24
68556;HTU21D;55544;51.032;5.866;2023-04-07T13:47:32;13.24;67.05
68556;HTU21D;55544;51.032;5.866;2023-04-07T13:50:00;13.14;68.17
68556;HTU21D;55544;51.032;5.866;2023-04-07T13:52:26;13.07;69.58
68556;HTU21D;55544;51.032;5.866;2023-04-07T13:54:52;13.02;70.67
68556;HTU21D;55544;51.032;5.866;2023-04-07T13:57:18;12.92;71.18
68556;HTU21D;55544;51.032;5.866;2023-04-07T13:59:47;12.84;71.79
68556;HTU21D;55544;51.032;5.866;2023-04-07T14:02:13;12.80;72.48
68556;HTU21D;55544;51.032;5.866;2023-04-07T14:04:39;12.79;72.88
68556;HTU21D;55544;51.032;5.866;2023-04-07T14:07:05;12.82;73.14
68556;HTU21D;55544;51.032;5.866;2023-04-07T14:09:31;12.88;73.35
68556;HTU21D;55544;51.032;5.866;2023-04-07T14:11:57;12.93;73.48
68556;HTU21D;55544;51.032;5.866;2023-04-07T14:14:22;12.99;73.35
68556;HTU21D;55544;51.032;5.866;2023-04-07T14:16:48;13.05;73.22
68556;HTU21D;55544;51.032;5.866;2023-04-07T14:19:20;13.07;72.70
68556;HTU21D;55544;51.032;5.866;2023-04-07T14:21:50;13.08;71.42
68556;HTU21D;55544;51.032;5.866;2023-04-07T14:24:16;13.05;70.76
68556;HTU21D;55544;51.032;5.866;2023-04-07T14:26:43;13.03;69.79
68556;HTU21D;55544;51.032;5.866;2023-04-07T14:29:12;13.01;69.48
68556;HTU21D;55544;51.032;5.866;2023-04-07T14:31:38;12.97;69.00
68556;HTU21D;55544;51.032;5.866;2023-04-07T14:34:04;12.95;69.27
68556;HTU21D;55544;51.032;5.866;2023-04-07T14:36:31;12.90;69.04
68556;HTU21D;55544;51.032;5.866;2023-04-07T14:38:57;12.86;68.86
68556;HTU21D;55544;51.032;5.866;2023-04-07T14:41:23;12.85;68.45
68556;HTU21D;55544;51.032;5.866;2023-04-07T14:43:49;12.81;68.23
68556;HTU21D;55544;51.032;5.866;2023-04-07T14:46:21;12.81;68.35
68556;HTU21D;55544;51.032;5.866;2023-04-07T14:48:47;12.87;68.40
68556;HTU21D;55544;51.032;5.866;2023-04-07T14:51:13;12.93;68.24
68556;HTU21D;55544;51.032;5.866;2023-04-07T14:53:40;12.96;68.01
68556;HTU21D;55544;51.032;5.866;2023-04-07T14:56:11;13.00;67.81
68556;HTU21D;55544;51.032;5.866;2023-04-07T14:58:37;13.01;67.56
68556;HTU21D;55544;51.032;5.866;2023-04-07T15:01:04;13.03;67.88
68556;HTU21D;55544;51.032;5.866;2023-04-07T15:03:30;13.09;67.78
68556;HTU21D;55544;51.032;5.866;2023-04-07T15:05:56;13.18;67.55
68556;HTU21D;55544;51.032;5.866;2023-04-07T15:08:22;13.25;66.98
68556;HTU21D;55544;51.032;5.866;2023-04-07T15:10:48;13.26;66.69
68556;HTU21D;55544;51.032;5.866;2023-04-07T15:13:14;13.27;66.78
68556;HTU21D;55544;51.032;5.866;2023-04-07T15:15:39;13.23;66.69
68556;HTU21D;55544;51.032;5.866;2023-04-07T15:18:05;13.20;66.72
68556;HTU21D;55544;51.032;5.866;2023-04-07T15:20:31;13.17;66.27
68556;HTU21D;55544;51.032;5.866;2023-04-07T15:22:57;13.15;65.84
68556;HTU21D;55544;51.032;5.866;2023-04-07T15:25:25;13.10;65.87
68556;HTU21D;55544;51.032;5.866;2023-04-07T15:27:50;13.14;65.95
68556;HTU21D;55544;51.032;5.866;2023-04-07T15:30:16;13.19;65.88
68556;HTU21D;55544;51.032;5.866;2023-04-07T15:32:55;13.18;65.82
68556;HTU21D;55544;51.032;5.866;2023-04-07T15:35:21;13.27;65.69
68556;HTU21D;55544;51.032;5.866;2023-04-07T15:37:47;13.41;64.99
68556;HTU21D;55544;51.032;5.866;2023-04-07T15:40:13;13.51;64.58
68556;HTU21D;55544;51.032;5.866;2023-04-07T15:42:38;13.58;64.19
68556;HTU21D;55544;51.032;5.866;2023-04-07T15:45:05;13.64;64.17
68556;HTU21D;55544;51.032;5.866;2023-04-07T15:47:31;13.73;64.23
68556;HTU21D;55544;51.032;5.866;2023-04-07T15:49:57;13.75;64.05